sensor_id;sensor_type;location;lat;lon;timestamp;P1;durP1;ratioP1;P2;durP2;ratioP2
18596;SDS011;9428;50.950;6.912;2023-09-18T00:01:21;8.98;;;5.35;;
18596;SDS011;9428;50.950;6.912;2023-09-18T00:04:08;8.75;;;5.38;;
18596;SDS011;9428;50.950;6.912;2023-09-18T00:06:56;10.13;;;5.20;;
18596;SDS011;9428;50.950;6.912;2023-09-18T00:09:44;10.00;;;5.90;;
18596;SDS011;9428;50.950;6.912;2023-09-18T00:12:31;8.80;;;5.40;;
18596;SDS011;9428;50.950;6.912;2023-09-18T00:15:19;10.00;;;5.30;;
18596;SDS011;9428;50.950;6.912;2023-09-18T00:18:06;9.35;;;5.00;;
18596;SDS011;9428;50.950;6.912;2023-09-18T00:20:53;11.93;;;5.35;;
18596;SDS011;9428;50.950;6.912;2023-09-18T00:23:40;8.35;;;5.50;;
18596;SDS011;9428;50.950;6.912;2023-09-18T00:26:29;12.52;;;5.85;;
18596;SDS011;9428;50.950;6.912;2023-09-18T00:29:16;9.88;;;5.38;;
18596;SDS011;9428;50.950;6.912;2023-09-18T00:32:04;8.30;;;5.40;;
18596;SDS011;9428;50.950;6.912;2023-09-18T00:34:52;6.35;;;4.80;;
18596;SDS011;9428;50.950;6.912;2023-09-18T00:37:39;11.85;;;5.22;;
18596;SDS011;9428;50.950;6.912;2023-09-18T00:40:28;10.18;;;4.60;;
18596;SDS011;9428;50.950;6.912;2023-09-18T00:43:17;9.85;;;5.05;;
18596;SDS011;9428;50.950;6.912;2023-09-18T00:46:06;10.40;;;6.55;;
18596;SDS011;9428;50.950;6.912;2023-09-18T00:48:54;10.18;;;5.75;;
18596;SDS011;9428;50.950;6.912;2023-09-18T00:51:41;11.77;;;5.15;;
18596;SDS011;9428;50.950;6.912;2023-09-18T00:54:29;5.13;;;4.55;;
18596;SDS011;9428;50.950;6.912;2023-09-18T00:57:18;10.43;;;5.55;;
18596;SDS011;9428;50.950;6.912;2023-09-18T01:00:08;10.27;;;5.20;;
18596;SDS011;9428;50.950;6.912;2023-09-18T01:02:56;12.25;;;5.35;;
18596;SDS011;9428;50.950;6.912;2023-09-18T01:05:43;10.07;;;5.85;;
18596;SDS011;9428;50.950;6.912;2023-09-18T01:08:30;9.27;;;5.47;;
18596;SDS011;9428;50.950;6.912;2023-09-18T01:11:19;11.48;;;5.35;;
18596;SDS011;9428;50.950;6.912;2023-09-18T01:14:18;7.90;;;4.93;;
18596;SDS011;9428;50.950;6.912;2023-09-18T01:17:11;8.48;;;5.22;;
18596;SDS011;9428;50.950;6.912;2023-09-18T01:20:01;12.07;;;6.28;;
18596;SDS011;9428;50.950;6.912;2023-09-18T01:22:52;9.88;;;5.50;;
18596;SDS011;9428;50.950;6.912;2023-09-18T01:25:39;8.68;;;4.80;;
18596;SDS011;9428;50.950;6.912;2023-09-18T01:28:26;10.48;;;5.57;;
18596;SDS011;9428;50.950;6.912;2023-09-18T01:31:14;8.60;;;5.10;;
18596;SDS011;9428;50.950;6.912;2023-09-18T01:34:02;6.97;;;5.15;;
18596;SDS011;9428;50.950;6.912;2023-09-18T01:36:51;9.30;;;4.65;;
18596;SDS011;9428;50.950;6.912;2023-09-18T01:39:40;14.35;;;5.28;;
18596;SDS011;9428;50.950;6.912;2023-09-18T01:42:28;8.43;;;4.90;;
18596;SDS011;9428;50.950;6.912;2023-09-18T01:45:16;9.55;;;4.90;;
18596;SDS011;9428;50.950;6.912;2023-09-18T01:48:04;8.95;;;4.55;;
18596;SDS011;9428;50.950;6.912;2023-09-18T01:50:52;9.38;;;4.35;;
18596;SDS011;9428;50.950;6.912;2023-09-18T01:53:39;10.13;;;5.35;;
18596;SDS011;9428;50.950;6.912;2023-09-18T01:56:28;11.50;;;4.90;;
18596;SDS011;9428;50.950;6.912;2023-09-18T01:59:15;9.70;;;5.03;;
18596;SDS011;9428;50.950;6.912;2023-09-18T02:02:04;8.73;;;4.72;;
18596;SDS011;9428;50.950;6.912;2023-09-18T02:04:54;8.50;;;4.63;;
18596;SDS011;9428;50.950;6.912;2023-09-18T02:07:42;9.43;;;5.32;;
18596;SDS011;9428;50.950;6.912;2023-09-18T02:10:29;7.70;;;4.53;;
18596;SDS011;9428;50.950;6.912;2023-09-18T02:13:17;9.57;;;5.10;;
18596;SDS011;9428;50.950;6.912;2023-09-18T02:16:05;8.13;;;5.22;;
18596;SDS011;9428;50.950;6.912;2023-09-18T02:18:54;7.43;;;4.93;;
18596;SDS011;9428;50.950;6.912;2023-09-18T02:21:41;9.68;;;5.13;;
18596;SDS011;9428;50.950;6.912;2023-09-18T02:24:29;9.20;;;4.65;;
18596;SDS011;9428;50.950;6.912;2023-09-18T02:27:16;9.45;;;5.03;;
18596;SDS011;9428;50.950;6.912;2023-09-18T02:30:06;6.30;;;4.65;;
18596;SDS011;9428;50.950;6.912;2023-09-18T02:32:55;10.00;;;5.35;;
18596;SDS011;9428;50.950;6.912;2023-09-18T02:35:42;18.30;;;5.22;;
18596;SDS011;9428;50.950;6.912;2023-09-18T02:38:29;9.60;;;5.28;;
18596;SDS011;9428;50.950;6.912;2023-09-18T02:41:17;7.03;;;5.03;;
18596;SDS011;9428;50.950;6.912;2023-09-18T02:44:04;8.00;;;4.72;;
18596;SDS011;9428;50.950;6.912;2023-09-18T02:46:53;11.60;;;5.20;;
18596;SDS011;9428;50.950;6.912;2023-09-18T02:49:40;8.55;;;4.80;;
18596;SDS011;9428;50.950;6.912;2023-09-18T02:52:27;12.70;;;5.20;;
18596;SDS011;9428;50.950;6.912;2023-09-18T02:55:14;7.53;;;5.00;;
18596;SDS011;9428;50.950;6.912;2023-09-18T02:58:02;8.15;;;5.00;;
18596;SDS011;9428;50.950;6.912;2023-09-18T03:00:50;8.82;;;5.00;;
18596;SDS011;9428;50.950;6.912;2023-09-18T03:03:38;12.00;;;5.00;;
18596;SDS011;9428;50.950;6.912;2023-09-18T03:06:27;9.07;;;5.07;;
18596;SDS011;9428;50.950;6.912;2023-09-18T03:09:14;9.85;;;5.35;;
18596;SDS011;9428;50.950;6.912;2023-09-18T03:12:02;8.27;;;5.07;;
18596;SDS011;9428;50.950;6.912;2023-09-18T03:14:49;12.43;;;4.70;;
18596;SDS011;9428;50.950;6.912;2023-09-18T03:17:37;6.32;;;5.03;;
18596;SDS011;9428;50.950;6.912;2023-09-18T03:20:28;13.60;;;5.45;;
18596;SDS011;9428;50.950;6.912;2023-09-18T03:23:16;8.32;;;5.20;;
18596;SDS011;9428;50.950;6.912;2023-09-18T03:26:03;10.88;;;5.20;;
18596;SDS011;9428;50.950;6.912;2023-09-18T03:28:50;12.88;;;5.50;;
18596;SDS011;9428;50.950;6.912;2023-09-18T03:31:37;10.50;;;5.40;;
18596;SDS011;9428;50.950;6.912;2023-09-18T03:34:25;10.57;;;5.38;;
18596;SDS011;9428;50.950;6.912;2023-09-18T03:37:14;10.13;;;4.88;;
18596;SDS011;9428;50.950;6.912;2023-09-18T03:40:01;7.53;;;5.00;;
18596;SDS011;9428;50.950;6.912;2023-09-18T03:42:48;11.25;;;5.07;;
18596;SDS011;9428;50.950;6.912;2023-09-18T03:45:36;10.93;;;5.70;;
18596;SDS011;9428;50.950;6.912;2023-09-18T03:48:23;10.52;;;5.80;;
18596;SDS011;9428;50.950;6.912;2023-09-18T03:51:10;10.25;;;5.20;;
18596;SDS011;9428;50.950;6.912;2023-09-18T03:54:02;6.50;;;4.40;;
18596;SDS011;9428;50.950;6.912;2023-09-18T03:56:50;6.20;;;4.70;;
18596;SDS011;9428;50.950;6.912;2023-09-18T03:59:38;10.00;;;4.75;;
18596;SDS011;9428;50.950;6.912;2023-09-18T04:02:25;8.38;;;4.53;;
18596;SDS011;9428;50.950;6.912;2023-09-18T04:05:13;9.25;;;4.75;;
18596;SDS011;9428;50.950;6.912;2023-09-18T04:08:00;11.00;;;4.97;;
18596;SDS011;9428;50.950;6.912;2023-09-18T04:10:49;11.90;;;4.47;;
18596;SDS011;9428;50.950;6.912;2023-09-18T04:13:36;13.30;;;4.78;;
18596;SDS011;9428;50.950;6.912;2023-09-18T04:16:23;6.07;;;3.92;;
18596;SDS011;9428;50.950;6.912;2023-09-18T04:19:10;6.72;;;4.45;;
18596;SDS011;9428;50.950;6.912;2023-09-18T04:21:57;7.05;;;4.15;;
18596;SDS011;9428;50.950;6.912;2023-09-18T04:24:45;16.10;;;4.75;;
18596;SDS011;9428;50.950;6.912;2023-09-18T04:27:33;10.07;;;4.15;;
18596;SDS011;9428;50.950;6.912;2023-09-18T04:30:20;10.30;;;4.35;;
18596;SDS011;9428;50.950;6.912;2023-09-18T04:33:08;11.90;;;4.03;;
18596;SDS011;9428;50.950;6.912;2023-09-18T04:35:56;11.70;;;4.25;;
18596;SDS011;9428;50.950;6.912;2023-09-18T04:38:43;9.57;;;4.45;;
18596;SDS011;9428;50.950;6.912;2023-09-18T04:41:30;11.88;;;4.38;;
18596;SDS011;9428;50.950;6.912;2023-09-18T04:44:19;12.50;;;4.07;;
18596;SDS011;9428;50.950;6.912;2023-09-18T04:47:06;9.27;;;4.72;;
18596;SDS011;9428;50.950;6.912;2023-09-18T04:49:53;16.50;;;4.72;;
18596;SDS011;9428;50.950;6.912;2023-09-18T04:52:40;10.57;;;4.30;;
18596;SDS011;9428;50.950;6.912;2023-09-18T04:55:29;14.02;;;4.68;;
18596;SDS011;9428;50.950;6.912;2023-09-18T04:58:16;12.73;;;5.20;;
18596;SDS011;9428;50.950;6.912;2023-09-18T05:01:05;8.30;;;4.47;;
18596;SDS011;9428;50.950;6.912;2023-09-18T05:03:53;10.38;;;4.40;;
18596;SDS011;9428;50.950;6.912;2023-09-18T05:06:40;18.02;;;5.30;;
18596;SDS011;9428;50.950;6.912;2023-09-18T05:09:27;12.02;;;4.78;;
18596;SDS011;9428;50.950;6.912;2023-09-18T05:12:16;13.68;;;4.35;;
18596;SDS011;9428;50.950;6.912;2023-09-18T05:15:03;8.80;;;4.57;;
18596;SDS011;9428;50.950;6.912;2023-09-18T05:17:53;10.88;;;4.38;;
18596;SDS011;9428;50.950;6.912;2023-09-18T05:20:42;14.77;;;4.32;;
18596;SDS011;9428;50.950;6.912;2023-09-18T05:23:30;13.50;;;4.45;;
18596;SDS011;9428;50.950;6.912;2023-09-18T05:26:17;9.30;;;4.00;;
18596;SDS011;9428;50.950;6.912;2023-09-18T05:29:05;12.80;;;4.10;;
18596;SDS011;9428;50.950;6.912;2023-09-18T05:31:52;7.03;;;4.10;;
18596;SDS011;9428;50.950;6.912;2023-09-18T05:34:41;12.55;;;4.30;;
18596;SDS011;9428;50.950;6.912;2023-09-18T05:37:28;9.95;;;3.85;;
18596;SDS011;9428;50.950;6.912;2023-09-18T05:40:16;13.82;;;4.10;;
18596;SDS011;9428;50.950;6.912;2023-09-18T05:43:03;9.35;;;4.50;;
18596;SDS011;9428;50.950;6.912;2023-09-18T05:45:51;11.50;;;4.25;;
18596;SDS011;9428;50.950;6.912;2023-09-18T05:48:38;9.48;;;3.70;;
18596;SDS011;9428;50.950;6.912;2023-09-18T05:51:27;12.02;;;4.40;;
18596;SDS011;9428;50.950;6.912;2023-09-18T05:54:14;9.15;;;4.30;;
18596;SDS011;9428;50.950;6.912;2023-09-18T05:57:01;19.38;;;4.63;;
18596;SDS011;9428;50.950;6.912;2023-09-18T05:59:49;10.18;;;4.07;;
18596;SDS011;9428;50.950;6.912;2023-09-18T06:02:36;10.73;;;3.72;;
18596;SDS011;9428;50.950;6.912;2023-09-18T06:05:24;8.85;;;3.47;;
18596;SDS011;9428;50.950;6.912;2023-09-18T06:08:13;7.18;;;3.08;;
18596;SDS011;9428;50.950;6.912;2023-09-18T06:11:00;10.10;;;3.50;;
18596;SDS011;9428;50.950;6.912;2023-09-18T06:13:47;9.00;;;2.95;;
18596;SDS011;9428;50.950;6.912;2023-09-18T06:16:34;8.88;;;3.40;;
18596;SDS011;9428;50.950;6.912;2023-09-18T06:19:22;13.90;;;3.50;;
18596;SDS011;9428;50.950;6.912;2023-09-18T06:22:09;9.63;;;3.00;;
18596;SDS011;9428;50.950;6.912;2023-09-18T06:24:58;8.35;;;2.90;;
18596;SDS011;9428;50.950;6.912;2023-09-18T06:27:45;7.18;;;2.88;;
18596;SDS011;9428;50.950;6.912;2023-09-18T06:30:33;8.35;;;3.20;;
18596;SDS011;9428;50.950;6.912;2023-09-18T06:33:21;8.63;;;3.40;;
18596;SDS011;9428;50.950;6.912;2023-09-18T06:36:09;5.65;;;2.88;;
18596;SDS011;9428;50.950;6.912;2023-09-18T06:38:56;5.45;;;2.88;;
18596;SDS011;9428;50.950;6.912;2023-09-18T06:41:45;6.35;;;2.58;;
18596;SDS011;9428;50.950;6.912;2023-09-18T06:44:32;7.15;;;2.70;;
18596;SDS011;9428;50.950;6.912;2023-09-18T06:47:19;5.28;;;2.58;;
18596;SDS011;9428;50.950;6.912;2023-09-18T06:50:06;8.95;;;3.15;;
18596;SDS011;9428;50.950;6.912;2023-09-18T06:52:55;9.80;;;2.65;;
18596;SDS011;9428;50.950;6.912;2023-09-18T06:55:42;8.63;;;2.35;;
18596;SDS011;9428;50.950;6.912;2023-09-18T06:58:31;6.45;;;2.60;;
18596;SDS011;9428;50.950;6.912;2023-09-18T07:01:18;8.10;;;2.78;;
18596;SDS011;9428;50.950;6.912;2023-09-18T07:04:06;5.82;;;3.20;;
18596;SDS011;9428;50.950;6.912;2023-09-18T07:06:53;5.25;;;2.72;;
18596;SDS011;9428;50.950;6.912;2023-09-18T07:09:41;7.03;;;2.50;;
18596;SDS011;9428;50.950;6.912;2023-09-18T07:12:29;4.55;;;2.60;;
18596;SDS011;9428;50.950;6.912;2023-09-18T07:15:18;5.82;;;2.10;;
18596;SDS011;9428;50.950;6.912;2023-09-18T07:18:05;6.22;;;2.22;;
18596;SDS011;9428;50.950;6.912;2023-09-18T07:20:52;8.13;;;2.33;;
18596;SDS011;9428;50.950;6.912;2023-09-18T07:23:40;7.55;;;2.47;;
18596;SDS011;9428;50.950;6.912;2023-09-18T07:26:27;7.20;;;2.28;;
18596;SDS011;9428;50.950;6.912;2023-09-18T07:29:14;7.75;;;2.25;;
18596;SDS011;9428;50.950;6.912;2023-09-18T07:32:04;4.57;;;2.30;;
18596;SDS011;9428;50.950;6.912;2023-09-18T07:34:54;3.47;;;1.80;;
18596;SDS011;9428;50.950;6.912;2023-09-18T07:37:42;3.28;;;2.03;;
18596;SDS011;9428;50.950;6.912;2023-09-18T07:40:32;6.85;;;1.92;;
18596;SDS011;9428;50.950;6.912;2023-09-18T07:43:19;2.58;;;1.70;;
18596;SDS011;9428;50.950;6.912;2023-09-18T07:46:07;10.93;;;2.30;;
18596;SDS011;9428;50.950;6.912;2023-09-18T07:48:56;5.38;;;1.98;;
18596;SDS011;9428;50.950;6.912;2023-09-18T07:51:43;4.30;;;1.90;;
18596;SDS011;9428;50.950;6.912;2023-09-18T07:54:30;3.05;;;1.65;;
18596;SDS011;9428;50.950;6.912;2023-09-18T07:57:18;4.30;;;1.75;;
18596;SDS011;9428;50.950;6.912;2023-09-18T08:00:08;2.42;;;1.63;;
18596;SDS011;9428;50.950;6.912;2023-09-18T08:02:58;5.97;;;2.10;;
18596;SDS011;9428;50.950;6.912;2023-09-18T08:05:49;2.70;;;1.75;;
18596;SDS011;9428;50.950;6.912;2023-09-18T08:08:37;2.85;;;1.55;;
18596;SDS011;9428;50.950;6.912;2023-09-18T08:11:25;3.30;;;1.67;;
18596;SDS011;9428;50.950;6.912;2023-09-18T08:14:12;6.55;;;1.95;;
18596;SDS011;9428;50.950;6.912;2023-09-18T08:17:00;5.05;;;2.35;;
18596;SDS011;9428;50.950;6.912;2023-09-18T08:19:49;3.35;;;2.10;;
18596;SDS011;9428;50.950;6.912;2023-09-18T08:22:39;8.18;;;2.00;;
18596;SDS011;9428;50.950;6.912;2023-09-18T08:25:26;5.80;;;2.17;;
18596;SDS011;9428;50.950;6.912;2023-09-18T08:28:13;7.57;;;2.00;;
18596;SDS011;9428;50.950;6.912;2023-09-18T08:31:01;2.80;;;1.67;;
18596;SDS011;9428;50.950;6.912;2023-09-18T08:33:49;4.13;;;1.83;;
18596;SDS011;9428;50.950;6.912;2023-09-18T08:36:36;5.97;;;1.85;;
18596;SDS011;9428;50.950;6.912;2023-09-18T08:39:25;5.70;;;2.28;;
18596;SDS011;9428;50.950;6.912;2023-09-18T08:42:12;3.42;;;1.58;;
18596;SDS011;9428;50.950;6.912;2023-09-18T08:45:02;3.70;;;1.90;;
18596;SDS011;9428;50.950;6.912;2023-09-18T08:47:54;3.50;;;1.48;;
18596;SDS011;9428;50.950;6.912;2023-09-18T08:50:42;3.65;;;1.70;;
18596;SDS011;9428;50.950;6.912;2023-09-18T08:53:30;4.93;;;1.75;;
18596;SDS011;9428;50.950;6.912;2023-09-18T08:56:19;4.10;;;1.75;;
18596;SDS011;9428;50.950;6.912;2023-09-18T08:59:09;4.00;;;1.63;;
18596;SDS011;9428;50.950;6.912;2023-09-18T09:01:59;4.57;;;1.58;;
18596;SDS011;9428;50.950;6.912;2023-09-18T09:04:46;3.90;;;1.83;;
18596;SDS011;9428;50.950;6.912;2023-09-18T09:07:33;4.15;;;1.70;;
18596;SDS011;9428;50.950;6.912;2023-09-18T09:10:21;5.47;;;1.77;;
18596;SDS011;9428;50.950;6.912;2023-09-18T09:13:09;4.68;;;1.80;;
18596;SDS011;9428;50.950;6.912;2023-09-18T09:15:57;3.55;;;1.77;;
18596;SDS011;9428;50.950;6.912;2023-09-18T09:18:47;4.88;;;1.73;;
18596;SDS011;9428;50.950;6.912;2023-09-18T09:21:38;2.50;;;1.73;;
18596;SDS011;9428;50.950;6.912;2023-09-18T09:24:36;4.97;;;1.67;;
18596;SDS011;9428;50.950;6.912;2023-09-18T09:27:24;5.20;;;1.80;;
18596;SDS011;9428;50.950;6.912;2023-09-18T09:30:15;5.72;;;1.95;;
18596;SDS011;9428;50.950;6.912;2023-09-18T09:33:06;7.20;;;1.90;;
18596;SDS011;9428;50.950;6.912;2023-09-18T09:35:53;3.70;;;1.75;;
18596;SDS011;9428;50.950;6.912;2023-09-18T09:38:41;5.00;;;2.50;;
18596;SDS011;9428;50.950;6.912;2023-09-18T09:41:30;3.38;;;1.50;;
18596;SDS011;9428;50.950;6.912;2023-09-18T09:44:19;2.58;;;1.42;;
18596;SDS011;9428;50.950;6.912;2023-09-18T09:47:08;4.68;;;1.52;;
18596;SDS011;9428;50.950;6.912;2023-09-18T09:49:56;5.40;;;1.80;;
18596;SDS011;9428;50.950;6.912;2023-09-18T09:52:44;3.30;;;1.40;;
18596;SDS011;9428;50.950;6.912;2023-09-18T09:55:34;4.55;;;1.80;;
18596;SDS011;9428;50.950;6.912;2023-09-18T09:58:21;2.53;;;1.48;;
18596;SDS011;9428;50.950;6.912;2023-09-18T10:01:16;2.40;;;1.40;;
18596;SDS011;9428;50.950;6.912;2023-09-18T10:04:05;4.07;;;1.90;;
18596;SDS011;9428;50.950;6.912;2023-09-18T10:06:56;7.28;;;1.88;;
18596;SDS011;9428;50.950;6.912;2023-09-18T10:09:52;4.95;;;1.65;;
18596;SDS011;9428;50.950;6.912;2023-09-18T10:12:40;5.50;;;1.65;;
18596;SDS011;9428;50.950;6.912;2023-09-18T10:15:28;4.00;;;1.88;;
18596;SDS011;9428;50.950;6.912;2023-09-18T10:18:22;3.35;;;1.30;;
18596;SDS011;9428;50.950;6.912;2023-09-18T10:21:17;3.92;;;2.00;;
18596;SDS011;9428;50.950;6.912;2023-09-18T10:24:12;3.15;;;1.83;;
18596;SDS011;9428;50.950;6.912;2023-09-18T10:27:05;4.50;;;1.35;;
18596;SDS011;9428;50.950;6.912;2023-09-18T10:29:54;2.70;;;1.50;;
18596;SDS011;9428;50.950;6.912;2023-09-18T10:32:42;3.30;;;1.50;;
18596;SDS011;9428;50.950;6.912;2023-09-18T10:35:31;2.78;;;1.52;;
18596;SDS011;9428;50.950;6.912;2023-09-18T10:38:20;4.28;;;1.30;;
18596;SDS011;9428;50.950;6.912;2023-09-18T10:41:08;3.58;;;1.25;;
18596;SDS011;9428;50.950;6.912;2023-09-18T10:43:57;1.88;;;1.67;;
18596;SDS011;9428;50.950;6.912;2023-09-18T10:46:46;3.90;;;1.30;;
18596;SDS011;9428;50.950;6.912;2023-09-18T10:49:34;3.05;;;1.60;;
18596;SDS011;9428;50.950;6.912;2023-09-18T10:52:22;2.75;;;1.50;;
18596;SDS011;9428;50.950;6.912;2023-09-18T10:55:12;7.43;;;1.67;;
18596;SDS011;9428;50.950;6.912;2023-09-18T10:58:00;4.43;;;1.50;;
18596;SDS011;9428;50.950;6.912;2023-09-18T11:00:48;2.78;;;1.50;;
18596;SDS011;9428;50.950;6.912;2023-09-18T11:03:37;2.83;;;1.30;;
18596;SDS011;9428;50.950;6.912;2023-09-18T11:06:25;4.78;;;1.38;;
18596;SDS011;9428;50.950;6.912;2023-09-18T11:09:13;4.07;;;1.35;;
18596;SDS011;9428;50.950;6.912;2023-09-18T11:12:08;2.92;;;1.33;;
18596;SDS011;9428;50.950;6.912;2023-09-18T11:14:56;2.50;;;1.33;;
18596;SDS011;9428;50.950;6.912;2023-09-18T11:17:54;3.28;;;1.48;;
18596;SDS011;9428;50.950;6.912;2023-09-18T11:20:45;3.85;;;1.33;;
18596;SDS011;9428;50.950;6.912;2023-09-18T11:23:59;4.20;;;1.52;;
18596;SDS011;9428;50.950;6.912;2023-09-18T11:26:49;3.95;;;1.38;;
18596;SDS011;9428;50.950;6.912;2023-09-18T11:29:39;6.97;;;1.77;;
18596;SDS011;9428;50.950;6.912;2023-09-18T11:32:37;2.38;;;1.30;;
18596;SDS011;9428;50.950;6.912;2023-09-18T11:35:25;2.97;;;1.38;;
18596;SDS011;9428;50.950;6.912;2023-09-18T11:38:13;2.50;;;1.20;;
18596;SDS011;9428;50.950;6.912;2023-09-18T11:47:23;4.47;;;1.42;;
18596;SDS011;9428;50.950;6.912;2023-09-18T11:50:13;4.25;;;1.20;;
18596;SDS011;9428;50.950;6.912;2023-09-18T11:53:02;2.38;;;1.50;;
18596;SDS011;9428;50.950;6.912;2023-09-18T11:55:50;3.47;;;1.33;;
18596;SDS011;9428;50.950;6.912;2023-09-18T11:58:44;1.90;;;1.40;;
18596;SDS011;9428;50.950;6.912;2023-09-18T12:01:32;5.35;;;1.73;;
18596;SDS011;9428;50.950;6.912;2023-09-18T12:04:28;3.22;;;1.38;;
18596;SDS011;9428;50.950;6.912;2023-09-18T12:07:16;2.03;;;1.38;;
18596;SDS011;9428;50.950;6.912;2023-09-18T12:10:04;3.10;;;1.67;;
18596;SDS011;9428;50.950;6.912;2023-09-18T12:12:52;2.47;;;1.40;;
18596;SDS011;9428;50.950;6.912;2023-09-18T12:15:39;3.67;;;1.48;;
18596;SDS011;9428;50.950;6.912;2023-09-18T12:18:27;2.55;;;1.45;;
18596;SDS011;9428;50.950;6.912;2023-09-18T12:21:17;1.98;;;1.40;;
18596;SDS011;9428;50.950;6.912;2023-09-18T12:24:04;2.97;;;1.60;;
18596;SDS011;9428;50.950;6.912;2023-09-18T12:26:52;2.22;;;1.38;;
18596;SDS011;9428;50.950;6.912;2023-09-18T12:29:40;2.08;;;1.38;;
18596;SDS011;9428;50.950;6.912;2023-09-18T12:32:29;3.30;;;1.40;;
18596;SDS011;9428;50.950;6.912;2023-09-18T12:35:17;1.98;;;1.60;;
18596;SDS011;9428;50.950;6.912;2023-09-18T12:38:14;2.88;;;1.55;;
18596;SDS011;9428;50.950;6.912;2023-09-18T12:41:03;3.63;;;1.70;;
18596;SDS011;9428;50.950;6.912;2023-09-18T12:43:54;3.50;;;1.70;;
18596;SDS011;9428;50.950;6.912;2023-09-18T12:46:42;5.60;;;1.83;;
18596;SDS011;9428;50.950;6.912;2023-09-18T12:49:30;2.38;;;1.73;;
18596;SDS011;9428;50.950;6.912;2023-09-18T12:52:21;2.65;;;1.30;;
18596;SDS011;9428;50.950;6.912;2023-09-18T12:55:10;2.45;;;1.40;;
18596;SDS011;9428;50.950;6.912;2023-09-18T12:58:10;2.05;;;1.13;;
18596;SDS011;9428;50.950;6.912;2023-09-18T13:01:03;4.22;;;1.55;;
18596;SDS011;9428;50.950;6.912;2023-09-18T13:03:53;5.88;;;1.77;;
18596;SDS011;9428;50.950;6.912;2023-09-18T13:06:41;4.00;;;1.40;;
18596;SDS011;9428;50.950;6.912;2023-09-18T13:09:29;3.13;;;1.20;;
18596;SDS011;9428;50.950;6.912;2023-09-18T13:12:18;4.60;;;1.50;;
18596;SDS011;9428;50.950;6.912;2023-09-18T13:15:06;5.75;;;1.40;;
18596;SDS011;9428;50.950;6.912;2023-09-18T13:17:58;2.30;;;1.45;;
18596;SDS011;9428;50.950;6.912;2023-09-18T13:20:46;6.07;;;1.48;;
18596;SDS011;9428;50.950;6.912;2023-09-18T13:23:34;2.17;;;1.20;;
18596;SDS011;9428;50.950;6.912;2023-09-18T13:26:21;3.50;;;1.40;;
18596;SDS011;9428;50.950;6.912;2023-09-18T13:29:09;2.45;;;1.30;;
18596;SDS011;9428;50.950;6.912;2023-09-18T13:31:57;1.88;;;1.23;;
18596;SDS011;9428;50.950;6.912;2023-09-18T13:34:45;4.30;;;1.23;;
18596;SDS011;9428;50.950;6.912;2023-09-18T13:37:33;3.63;;;1.88;;
18596;SDS011;9428;50.950;6.912;2023-09-18T13:40:21;2.47;;;1.58;;
18596;SDS011;9428;50.950;6.912;2023-09-18T13:43:09;3.30;;;1.20;;
18596;SDS011;9428;50.950;6.912;2023-09-18T13:45:57;2.30;;;1.50;;
18596;SDS011;9428;50.950;6.912;2023-09-18T13:48:45;3.33;;;1.38;;
18596;SDS011;9428;50.950;6.912;2023-09-18T13:51:33;2.65;;;1.70;;
18596;SDS011;9428;50.950;6.912;2023-09-18T13:54:20;5.88;;;1.60;;
18596;SDS011;9428;50.950;6.912;2023-09-18T13:57:07;2.13;;;1.45;;
18596;SDS011;9428;50.950;6.912;2023-09-18T13:59:55;2.35;;;1.20;;
18596;SDS011;9428;50.950;6.912;2023-09-18T14:02:43;1.67;;;1.30;;
18596;SDS011;9428;50.950;6.912;2023-09-18T14:05:31;2.92;;;1.55;;
18596;SDS011;9428;50.950;6.912;2023-09-18T14:08:19;2.75;;;1.40;;
18596;SDS011;9428;50.950;6.912;2023-09-18T14:11:06;3.22;;;1.33;;
18596;SDS011;9428;50.950;6.912;2023-09-18T14:13:53;2.22;;;1.25;;
18596;SDS011;9428;50.950;6.912;2023-09-18T14:16:40;4.95;;;1.23;;
18596;SDS011;9428;50.950;6.912;2023-09-18T14:19:30;3.05;;;1.63;;
18596;SDS011;9428;50.950;6.912;2023-09-18T14:22:17;4.43;;;1.63;;
18596;SDS011;9428;50.950;6.912;2023-09-18T14:25:05;2.72;;;1.45;;
18596;SDS011;9428;50.950;6.912;2023-09-18T14:27:52;2.20;;;1.25;;
18596;SDS011;9428;50.950;6.912;2023-09-18T14:30:39;2.90;;;1.63;;
18596;SDS011;9428;50.950;6.912;2023-09-18T14:33:27;1.55;;;1.20;;
18596;SDS011;9428;50.950;6.912;2023-09-18T14:36:15;3.88;;;1.55;;
18596;SDS011;9428;50.950;6.912;2023-09-18T14:39:03;2.42;;;1.60;;
18596;SDS011;9428;50.950;6.912;2023-09-18T14:41:50;2.42;;;1.35;;
18596;SDS011;9428;50.950;6.912;2023-09-18T14:44:38;4.50;;;1.50;;
18596;SDS011;9428;50.950;6.912;2023-09-18T14:47:30;3.15;;;1.42;;
18596;SDS011;9428;50.950;6.912;2023-09-18T14:50:17;2.25;;;1.67;;
18596;SDS011;9428;50.950;6.912;2023-09-18T14:53:05;2.15;;;1.40;;
18596;SDS011;9428;50.950;6.912;2023-09-18T14:55:54;5.40;;;1.40;;
18596;SDS011;9428;50.950;6.912;2023-09-18T14:58:42;3.65;;;1.52;;
18596;SDS011;9428;50.950;6.912;2023-09-18T15:01:29;2.83;;;1.60;;
18596;SDS011;9428;50.950;6.912;2023-09-18T15:04:17;4.63;;;1.30;;
18596;SDS011;9428;50.950;6.912;2023-09-18T15:07:04;3.10;;;1.63;;
18596;SDS011;9428;50.950;6.912;2023-09-18T15:09:53;2.25;;;1.10;;
18596;SDS011;9428;50.950;6.912;2023-09-18T15:12:40;1.77;;;1.20;;
18596;SDS011;9428;50.950;6.912;2023-09-18T15:15:27;3.20;;;1.65;;
18596;SDS011;9428;50.950;6.912;2023-09-18T15:18:15;2.95;;;1.50;;
18596;SDS011;9428;50.950;6.912;2023-09-18T15:21:02;4.78;;;1.77;;
18596;SDS011;9428;50.950;6.912;2023-09-18T15:23:49;2.70;;;1.50;;
18596;SDS011;9428;50.950;6.912;2023-09-18T15:26:38;4.80;;;1.40;;
18596;SDS011;9428;50.950;6.912;2023-09-18T15:29:25;3.92;;;1.63;;
18596;SDS011;9428;50.950;6.912;2023-09-18T15:32:13;3.45;;;1.42;;
18596;SDS011;9428;50.950;6.912;2023-09-18T15:35:00;5.97;;;1.35;;
18596;SDS011;9428;50.950;6.912;2023-09-18T15:37:48;3.05;;;1.60;;
18596;SDS011;9428;50.950;6.912;2023-09-18T15:40:36;4.38;;;1.50;;
18596;SDS011;9428;50.950;6.912;2023-09-18T15:43:25;3.75;;;1.58;;
18596;SDS011;9428;50.950;6.912;2023-09-18T15:46:13;3.42;;;1.48;;
18596;SDS011;9428;50.950;6.912;2023-09-18T15:49:02;2.28;;;1.45;;
18596;SDS011;9428;50.950;6.912;2023-09-18T15:51:50;6.10;;;1.60;;
18596;SDS011;9428;50.950;6.912;2023-09-18T15:54:37;3.17;;;1.48;;
18596;SDS011;9428;50.950;6.912;2023-09-18T15:57:25;3.47;;;1.55;;
18596;SDS011;9428;50.950;6.912;2023-09-18T16:00:14;2.70;;;1.63;;
18596;SDS011;9428;50.950;6.912;2023-09-18T16:03:03;2.05;;;1.25;;
18596;SDS011;9428;50.950;6.912;2023-09-18T16:05:50;5.18;;;1.60;;
18596;SDS011;9428;50.950;6.912;2023-09-18T16:08:39;6.93;;;1.80;;
18596;SDS011;9428;50.950;6.912;2023-09-18T16:11:26;4.88;;;1.80;;
18596;SDS011;9428;50.950;6.912;2023-09-18T16:14:13;3.42;;;1.60;;
18596;SDS011;9428;50.950;6.912;2023-09-18T16:17:05;4.53;;;1.98;;
18596;SDS011;9428;50.950;6.912;2023-09-18T16:19:52;3.10;;;1.80;;
18596;SDS011;9428;50.950;6.912;2023-09-18T16:22:43;4.10;;;1.80;;
18596;SDS011;9428;50.950;6.912;2023-09-18T16:25:32;4.47;;;1.70;;
18596;SDS011;9428;50.950;6.912;2023-09-18T16:28:19;2.95;;;1.85;;
18596;SDS011;9428;50.950;6.912;2023-09-18T16:31:10;3.17;;;1.75;;
18596;SDS011;9428;50.950;6.912;2023-09-18T16:33:58;2.67;;;1.58;;
18596;SDS011;9428;50.950;6.912;2023-09-18T16:36:49;7.63;;;1.90;;
18596;SDS011;9428;50.950;6.912;2023-09-18T16:39:37;2.63;;;1.50;;
18596;SDS011;9428;50.950;6.912;2023-09-18T16:42:24;6.07;;;1.77;;
18596;SDS011;9428;50.950;6.912;2023-09-18T16:45:11;2.42;;;1.50;;
18596;SDS011;9428;50.950;6.912;2023-09-18T16:47:59;5.60;;;1.48;;
18596;SDS011;9428;50.950;6.912;2023-09-18T16:50:47;2.28;;;1.63;;
18596;SDS011;9428;50.950;6.912;2023-09-18T16:53:34;4.32;;;1.77;;
18596;SDS011;9428;50.950;6.912;2023-09-18T16:56:21;3.42;;;1.70;;
18596;SDS011;9428;50.950;6.912;2023-09-18T16:59:13;3.50;;;1.98;;
18596;SDS011;9428;50.950;6.912;2023-09-18T17:02:00;7.28;;;1.73;;
18596;SDS011;9428;50.950;6.912;2023-09-18T17:04:48;4.45;;;1.80;;
18596;SDS011;9428;50.950;6.912;2023-09-18T17:07:37;4.85;;;1.58;;
18596;SDS011;9428;50.950;6.912;2023-09-18T17:10:25;6.75;;;2.08;;
18596;SDS011;9428;50.950;6.912;2023-09-18T17:13:13;4.95;;;1.80;;